createdAt,value
2023-01-30T00:01:19.908Z,31.90
2023-01-30T00:03:50.282Z,24.50
2023-01-30T00:06:20.988Z,26.30
2023-01-30T00:08:51.553Z,39.90
2023-01-30T00:11:22.780Z,34.50
2023-01-30T00:13:53.611Z,33.00
2023-01-30T00:16:24.036Z,34.10
2023-01-30T00:18:54.506Z,26.60
2023-01-30T00:21:24.936Z,29.90
2023-01-30T00:23:55.233Z,27.10
2023-01-30T00:26:25.605Z,35.00
2023-01-30T00:28:55.969Z,28.50
2023-01-30T00:31:26.513Z,30.30
2023-01-30T00:33:56.908Z,32.20
2023-01-30T00:36:27.279Z,30.90
2023-01-30T00:38:59.321Z,28.00
2023-01-30T00:41:49.615Z,30.00
2023-01-30T00:44:37.301Z,29.20
2023-01-30T00:47:08.976Z,38.00
2023-01-30T00:49:39.679Z,36.00
2023-01-30T00:52:10.064Z,30.90
2023-01-30T00:54:40.430Z,31.10
2023-01-30T00:57:10.755Z,29.80
2023-01-30T00:59:41.084Z,28.70
2023-01-30T01:02:11.510Z,27.30
2023-01-30T01:04:44.156Z,29.20
2023-01-30T01:07:17.871Z,35.40
2023-01-30T01:09:48.259Z,34.20
2023-01-30T01:12:18.712Z,37.00
2023-01-30T01:14:49.242Z,26.90
2023-01-30T01:17:19.848Z,23.60
2023-01-30T01:19:50.270Z,32.10
2023-01-30T01:22:20.592Z,29.30
2023-01-30T01:24:51.007Z,31.00
2023-01-30T01:27:21.394Z,26.50
2023-01-30T01:29:52.716Z,31.20
2023-01-30T01:32:24.135Z,24.60
2023-01-30T01:34:54.673Z,29.80
2023-01-30T01:37:25.252Z,26.90
2023-01-30T01:40:13.383Z,29.60
2023-01-30T01:42:44.001Z,40.00
2023-01-30T01:45:20.671Z,38.80
2023-01-30T01:48:00.169Z,35.40
2023-01-30T01:50:33.934Z,21.70
2023-01-30T01:53:04.449Z,28.70
2023-01-30T01:55:35.063Z,31.90
2023-01-30T01:58:08.269Z,28.30
2023-01-30T02:00:38.732Z,33.10
2023-01-30T02:03:13.690Z,33.50
2023-01-30T02:05:47.521Z,37.10
2023-01-30T02:08:20.326Z,32.50
2023-01-30T02:10:58.160Z,30.40
2023-01-30T02:13:28.975Z,22.00
2023-01-30T02:16:00.083Z,26.00
2023-01-30T02:18:31.662Z,29.60
2023-01-30T02:21:50.801Z,31.00
2023-01-30T02:24:38.014Z,19.70
2023-01-30T02:27:28.516Z,29.00
2023-01-30T02:30:26.796Z,25.10
2023-01-30T02:33:05.461Z,31.90
2023-01-30T02:35:43.611Z,26.30
2023-01-30T02:38:31.662Z,34.80
2023-01-30T02:41:08.631Z,27.50
2023-01-30T02:43:47.177Z,23.60
2023-01-30T02:46:21.301Z,19.90
2023-01-30T02:48:57.783Z,25.00
2023-01-30T02:51:32.698Z,31.80
2023-01-30T02:54:04.963Z,30.40
2023-01-30T02:56:47.679Z,25.60
2023-01-30T02:59:23.646Z,28.20
2023-01-30T03:02:25.737Z,31.10
2023-01-30T03:05:09.698Z,28.50
2023-01-30T03:07:48.689Z,30.90
2023-01-30T03:10:26.674Z,24.60
2023-01-30T03:13:07.829Z,24.80
2023-01-30T03:15:44.746Z,30.90
2023-01-30T03:18:17.063Z,30.10
2023-01-30T03:20:50.988Z,25.40
2023-01-30T03:23:23.239Z,25.60
2023-01-30T03:25:55.734Z,30.70
2023-01-30T03:28:27.082Z,22.10
2023-01-30T03:37:26.388Z,25.80
2023-01-30T03:39:57.585Z,24.10
2023-01-30T03:42:29.127Z,27.90
2023-01-30T03:44:59.565Z,25.40
2023-01-30T03:47:29.916Z,28.60
2023-01-30T03:50:00.317Z,22.80
2023-01-30T03:52:30.924Z,29.70
2023-01-30T03:55:01.398Z,26.70
2023-01-30T03:57:32.443Z,23.80
2023-01-30T04:00:04.134Z,27.90
2023-01-30T04:02:35.624Z,19.60
2023-01-30T04:05:08.045Z,30.40
2023-01-30T04:07:38.772Z,28.50
2023-01-30T04:10:11.341Z,23.50
2023-01-30T04:15:12.604Z,24.10
2023-01-30T04:17:51.496Z,18.50
2023-01-30T04:20:38.618Z,22.80
2023-01-30T04:23:09.036Z,30.10
2023-01-30T04:25:39.346Z,30.30
2023-01-30T04:28:11.017Z,36.20
2023-01-30T04:30:41.909Z,25.40
2023-01-30T04:33:30.867Z,23.60
2023-01-30T04:36:02.398Z,22.80
2023-01-30T04:38:33.561Z,26.40
2023-01-30T04:41:04.140Z,26.60
2023-01-30T04:43:36.035Z,28.60
2023-01-30T04:46:26.381Z,24.90
2023-01-30T04:48:56.789Z,25.60
2023-01-30T04:51:27.174Z,26.30
2023-01-30T04:53:57.521Z,20.80
2023-01-30T04:56:28.028Z,22.60
2023-01-30T04:58:58.417Z,31.60
2023-01-30T05:01:34.885Z,29.00
2023-01-30T05:04:05.761Z,29.40
2023-01-30T05:06:36.757Z,26.00
2023-01-30T05:09:07.242Z,21.70
2023-01-30T05:11:38.255Z,26.50
2023-01-30T05:14:08.570Z,23.00
2023-01-30T05:16:38.862Z,28.60
2023-01-30T05:19:10.035Z,29.60
2023-01-30T05:21:40.516Z,17.40
2023-01-30T05:24:11.127Z,23.50
2023-01-30T05:26:41.557Z,23.70
2023-01-30T05:29:12.981Z,21.80
2023-01-30T05:31:43.393Z,24.90
2023-01-30T05:34:15.013Z,21.20
2023-01-30T05:36:45.777Z,25.70
2023-01-30T05:39:16.345Z,29.80
2023-01-30T05:41:47.408Z,28.20
2023-01-30T05:44:18.057Z,24.80
2023-01-30T05:46:48.580Z,25.60
2023-01-30T05:49:19.432Z,23.70
2023-01-30T05:51:51.514Z,20.90
2023-01-30T05:54:22.014Z,28.80
2023-01-30T05:56:52.912Z,30.90
2023-01-30T05:59:23.463Z,31.10
2023-01-30T06:01:53.807Z,24.10
2023-01-30T06:04:24.265Z,23.80
2023-01-30T06:06:54.558Z,28.40
2023-01-30T06:09:24.789Z,29.70
2023-01-30T06:11:55.632Z,31.20
2023-01-30T06:14:25.933Z,24.70
2023-01-30T06:16:56.556Z,25.80
2023-01-30T06:19:26.902Z,19.60
2023-01-30T06:21:57.239Z,22.90
2023-01-30T06:24:27.582Z,29.70
2023-01-30T06:26:57.840Z,29.10
2023-01-30T06:29:28.196Z,16.20
2023-01-30T06:32:00.777Z,22.90
2023-01-30T06:34:31.126Z,24.50
2023-01-30T06:37:01.422Z,23.70
2023-01-30T06:39:31.886Z,17.60
2023-01-30T06:42:02.619Z,23.70
2023-01-30T06:44:32.882Z,22.40
2023-01-30T06:47:03.234Z,25.70
2023-01-30T06:49:33.549Z,24.60
2023-01-30T06:52:03.883Z,22.40
2023-01-30T06:54:34.181Z,24.00
2023-01-30T06:57:04.660Z,23.80
2023-01-30T06:59:34.961Z,23.70
2023-01-30T07:02:05.397Z,21.00
2023-01-30T07:04:35.904Z,20.30
2023-01-30T07:07:07.157Z,17.80
2023-01-30T07:09:37.521Z,19.10
2023-01-30T07:12:08.507Z,21.10
2023-01-30T07:14:38.784Z,22.90
2023-01-30T07:17:09.094Z,19.10
2023-01-30T07:19:39.823Z,16.00
2023-01-30T07:22:10.110Z,16.10
2023-01-30T07:24:42.819Z,18.20
2023-01-30T07:27:14.089Z,21.50
2023-01-30T07:29:44.369Z,19.70
2023-01-30T07:32:18.390Z,17.30
2023-01-30T07:34:49.139Z,15.20
2023-01-30T07:37:19.467Z,17.10
2023-01-30T07:39:49.823Z,17.00
2023-01-30T07:42:20.146Z,17.00
2023-01-30T07:44:50.504Z,19.00
2023-01-30T07:47:20.987Z,15.90
2023-01-30T07:49:51.367Z,15.60
2023-01-30T07:52:21.641Z,15.60
2023-01-30T07:54:51.926Z,20.00
2023-01-30T07:57:22.499Z,21.40
2023-01-30T07:59:52.886Z,16.60
2023-01-30T08:02:23.210Z,15.10
2023-01-30T08:04:53.584Z,12.00
2023-01-30T08:07:23.954Z,16.30
2023-01-30T08:09:54.503Z,19.00
2023-01-30T08:12:24.988Z,19.00
2023-01-30T08:14:55.407Z,17.70
2023-01-30T08:17:25.796Z,17.70
2023-01-30T08:19:56.190Z,17.40
2023-01-30T08:22:26.646Z,18.60
2023-01-30T08:24:57.019Z,20.30
2023-01-30T08:27:27.440Z,20.50
2023-01-30T08:29:58.015Z,16.30
2023-01-30T08:32:28.483Z,16.60
2023-01-30T08:34:58.807Z,17.80
2023-01-30T08:37:29.226Z,14.70
2023-01-30T08:39:59.603Z,21.40
2023-01-30T08:42:30.491Z,21.30
2023-01-30T08:45:00.796Z,17.90
2023-01-30T08:47:31.399Z,16.60
2023-01-30T08:50:01.813Z,15.10
2023-01-30T08:52:32.436Z,15.30
2023-01-30T08:55:02.789Z,14.40
2023-01-30T08:57:33.502Z,14.30
2023-01-30T09:00:04.901Z,14.50
2023-01-30T09:02:35.458Z,13.60
2023-01-30T09:05:06.394Z,14.30
2023-01-30T09:07:36.823Z,12.10
2023-01-30T09:10:08.551Z,11.80
2023-01-30T09:12:39.046Z,11.00
2023-01-30T09:15:11.280Z,13.00
2023-01-30T09:17:41.644Z,9.90
2023-01-30T09:20:13.621Z,12.30
2023-01-30T09:22:43.918Z,9.60
2023-01-30T09:25:14.328Z,10.60
2023-01-30T09:27:45.027Z,11.20
2023-01-30T09:30:16.564Z,5.60
2023-01-30T09:32:47.403Z,13.40
2023-01-30T09:35:17.894Z,9.00
2023-01-30T09:37:52.275Z,8.70
2023-01-30T09:40:28.390Z,8.30
2023-01-30T09:43:08.111Z,9.20
2023-01-30T09:45:45.890Z,9.90
2023-01-30T09:48:21.046Z,7.50
2023-01-30T09:51:07.502Z,7.50
2023-01-30T09:53:53.712Z,7.60
2023-01-30T09:56:24.064Z,8.10
2023-01-30T09:58:57.293Z,9.00
2023-01-30T10:01:30.390Z,7.90
2023-01-30T10:04:14.742Z,8.20
2023-01-30T10:06:53.303Z,9.20
2023-01-30T10:09:32.359Z,8.50
2023-01-30T10:12:12.803Z,8.00
2023-01-30T10:15:02.917Z,8.00
2023-01-30T10:17:47.072Z,7.30
2023-01-30T10:20:31.590Z,7.10
2023-01-30T10:23:16.629Z,8.10
2023-01-30T10:25:50.578Z,5.50
2023-01-30T10:28:26.078Z,7.00
2023-01-30T10:31:03.557Z,6.70
2023-01-30T10:33:38.338Z,6.90
2023-01-30T10:36:15.283Z,7.50
2023-01-30T10:38:51.759Z,5.70
2023-01-30T10:41:28.810Z,6.00
2023-01-30T10:44:06.293Z,6.30
2023-01-30T10:46:55.786Z,6.80
2023-01-30T10:49:38.264Z,5.80
2023-01-30T10:52:32.287Z,5.10
2023-01-30T10:55:12.712Z,5.20
2023-01-30T10:57:51.627Z,3.80
2023-01-30T11:00:29.921Z,4.80
2023-01-30T11:03:13.318Z,6.00
2023-01-30T11:05:49.408Z,4.20
2023-01-30T11:08:27.467Z,3.60
2023-01-30T11:11:01.376Z,2.30
2023-01-30T11:13:35.771Z,3.00
2023-01-30T11:16:10.362Z,3.30
2023-01-30T11:19:18.972Z,3.60
2023-01-30T11:21:45.417Z,3.30
2023-01-30T11:24:21.053Z,3.30
2023-01-30T11:26:54.505Z,2.80
2023-01-30T11:29:32.025Z,3.80
2023-01-30T11:37:57.715Z,2.90
2023-01-30T11:40:31.750Z,4.20
2023-01-30T11:43:07.237Z,3.00
2023-01-30T11:45:39.665Z,5.00
2023-01-30T11:48:31.559Z,3.60
2023-01-30T11:51:06.826Z,3.80
2023-01-30T11:56:15.719Z,4.40
2023-01-30T11:58:48.585Z,4.10
2023-01-30T12:03:50.969Z,2.50
2023-01-30T12:06:26.460Z,3.70
2023-01-30T12:08:57.474Z,5.00
2023-01-30T12:11:30.649Z,4.60
2023-01-30T12:14:09.753Z,5.00
2023-01-30T12:16:51.131Z,5.40
2023-01-30T12:19:31.639Z,4.20
2023-01-30T12:22:05.837Z,6.10
2023-01-30T12:24:41.455Z,3.30
2023-01-30T12:27:16.651Z,3.30
2023-01-30T12:29:55.922Z,4.10
2023-01-30T12:32:29.660Z,4.30
2023-01-30T12:35:01.488Z,2.50
2023-01-30T12:37:46.414Z,2.90
2023-01-30T12:40:26.209Z,3.30
2023-01-30T12:43:07.739Z,4.80
2023-01-30T12:45:42.182Z,3.40
2023-01-30T12:48:28.685Z,3.60
2023-01-30T12:51:06.314Z,5.20
2023-01-30T12:53:45.392Z,3.60
2023-01-30T12:56:33.078Z,4.50
2023-01-30T12:59:09.192Z,4.00
2023-01-30T13:01:48.577Z,3.20
2023-01-30T13:04:26.051Z,3.30
2023-01-30T13:07:03.099Z,5.20
2023-01-30T13:09:47.134Z,2.90
2023-01-30T13:12:24.233Z,4.10
2023-01-30T13:15:01.388Z,2.80
2023-01-30T13:17:45.688Z,3.40
2023-01-30T13:20:31.241Z,4.70
2023-01-30T13:23:06.059Z,5.30
2023-01-30T13:25:42.339Z,6.80
2023-01-30T13:28:16.014Z,5.20
2023-01-30T13:30:49.153Z,6.00
2023-01-30T13:35:54.812Z,6.20
2023-01-30T13:38:27.904Z,4.00
2023-01-30T13:41:02.795Z,5.40
2023-01-30T13:43:37.141Z,4.80
2023-01-30T13:46:11.237Z,3.70
2023-01-30T13:48:55.428Z,6.50
2023-01-30T13:51:33.271Z,4.50
2023-01-30T13:54:07.608Z,6.50
2023-01-30T13:56:43.164Z,9.50
2023-01-30T13:59:21.937Z,6.80
2023-01-30T14:02:19.742Z,6.30
2023-01-30T14:04:52.238Z,4.20
2023-01-30T14:07:26.906Z,10.80
2023-01-30T14:10:12.290Z,6.60
2023-01-30T14:12:45.252Z,4.80
2023-01-30T14:18:07.415Z,4.30
2023-01-30T14:20:40.589Z,5.90
2023-01-30T14:25:53.073Z,3.80
2023-01-30T14:28:52.698Z,3.80
2023-01-30T14:31:50.147Z,6.90
2023-01-30T14:34:41.789Z,5.60
2023-01-30T14:37:45.923Z,7.40
2023-01-30T14:40:37.356Z,6.30
2023-01-30T14:43:36.920Z,5.20
2023-01-30T14:46:09.080Z,3.00
2023-01-30T14:48:44.809Z,7.50
2023-01-30T14:51:23.430Z,6.10
2023-01-30T14:53:56.883Z,7.60
2023-01-30T14:56:41.453Z,7.00
2023-01-30T14:59:20.320Z,7.70
2023-01-30T15:02:03.529Z,10.40
2023-01-30T15:07:10.358Z,7.40
2023-01-30T15:09:41.897Z,4.80
2023-01-30T15:12:29.647Z,12.70
2023-01-30T15:15:07.045Z,5.60
2023-01-30T15:17:48.508Z,8.30
2023-01-30T15:20:29.726Z,5.00
2023-01-30T15:23:15.138Z,5.50
2023-01-30T15:26:01.924Z,7.00
2023-01-30T15:28:37.831Z,4.70
2023-01-30T15:31:12.156Z,6.10
2023-01-30T15:33:50.723Z,7.70
2023-01-30T15:36:24.267Z,7.10
2023-01-30T15:39:01.683Z,7.90
2023-01-30T15:41:35.360Z,5.50
2023-01-30T15:44:33.225Z,5.20
2023-01-30T15:47:14.587Z,6.10
2023-01-30T15:49:54.305Z,7.00
2023-01-30T15:52:29.109Z,8.50
2023-01-30T15:55:02.170Z,8.30
2023-01-30T15:57:35.886Z,10.80
2023-01-30T16:00:08.885Z,8.10
2023-01-30T16:02:45.499Z,10.10
2023-01-30T16:05:21.195Z,8.30
2023-01-30T16:07:52.849Z,10.00
2023-01-30T16:10:24.672Z,5.60
2023-01-30T16:12:57.359Z,6.90
2023-01-30T16:15:32.119Z,6.20
2023-01-30T16:18:06.161Z,9.50
2023-01-30T16:20:58.912Z,13.40
2023-01-30T16:23:34.827Z,7.80
2023-01-30T16:26:06.674Z,6.60
2023-01-30T16:28:37.284Z,7.40
2023-01-30T16:31:09.459Z,6.30
2023-01-30T16:33:40.392Z,7.30
2023-01-30T16:36:32.982Z,9.30
2023-01-30T16:39:03.391Z,10.80
2023-01-30T16:41:35.586Z,8.90
2023-01-30T16:44:17.829Z,7.20
2023-01-30T16:46:53.199Z,11.70
2023-01-30T16:49:25.907Z,8.00
2023-01-30T16:52:05.488Z,12.70
2023-01-30T16:54:36.175Z,8.50
2023-01-30T16:57:06.865Z,11.10
2023-01-30T16:59:37.875Z,10.70
2023-01-30T17:02:15.501Z,7.10
2023-01-30T17:04:45.790Z,7.90
2023-01-30T17:07:35.250Z,11.70
2023-01-30T17:10:06.329Z,10.40
2023-01-30T17:12:49.353Z,6.70
2023-01-30T17:15:36.641Z,8.20
2023-01-30T17:18:07.776Z,9.90
2023-01-30T17:20:47.425Z,11.10
2023-01-30T17:23:20.163Z,10.80
2023-01-30T17:25:51.187Z,10.80
2023-01-30T17:28:24.193Z,10.20
2023-01-30T17:30:54.869Z,8.70
2023-01-30T17:33:25.840Z,6.00
2023-01-30T17:35:56.322Z,12.40
2023-01-30T17:38:26.682Z,11.90
2023-01-30T17:40:57.436Z,7.80
2023-01-30T17:43:27.880Z,11.90
2023-01-30T17:45:58.412Z,11.20
2023-01-30T17:48:29.118Z,6.00
2023-01-30T17:50:59.476Z,16.80
2023-01-30T17:53:29.782Z,15.60
2023-01-30T17:56:00.175Z,13.80
2023-01-30T17:58:30.631Z,9.00
2023-01-30T18:01:01.030Z,10.50
2023-01-30T18:03:31.423Z,10.80
2023-01-30T18:06:02.157Z,10.80
2023-01-30T18:08:32.606Z,13.90
2023-01-30T18:11:11.417Z,11.30
2023-01-30T18:13:43.465Z,14.00
2023-01-30T18:16:18.515Z,15.90
2023-01-30T18:18:49.882Z,8.40
2023-01-30T18:21:22.069Z,10.60
2023-01-30T18:23:52.788Z,4.80
2023-01-30T18:26:23.420Z,11.20
2023-01-30T18:28:54.261Z,11.90
2023-01-30T18:31:26.788Z,9.00
2023-01-30T18:33:57.362Z,9.30
2023-01-30T18:36:27.818Z,10.20
2023-01-30T18:38:58.187Z,13.30
2023-01-30T18:41:29.287Z,13.70
2023-01-30T18:44:00.798Z,10.90
2023-01-30T18:46:32.480Z,8.00
2023-01-30T18:49:03.150Z,10.70
2023-01-30T18:51:34.337Z,8.80
2023-01-30T18:54:04.845Z,8.90
2023-01-30T18:56:36.343Z,15.50
2023-01-30T18:59:07.985Z,12.80
2023-01-30T19:01:39.962Z,10.90
2023-01-30T19:04:11.975Z,13.90
2023-01-30T19:06:43.685Z,12.40
2023-01-30T19:09:17.258Z,10.50
2023-01-30T19:12:01.880Z,24.10
2023-01-30T19:14:32.338Z,13.30
2023-01-30T19:17:04.275Z,14.60
2023-01-30T19:19:37.120Z,13.70
2023-01-30T19:22:08.487Z,19.30
2023-01-30T19:24:39.272Z,15.00
2023-01-30T19:27:14.086Z,15.20
2023-01-30T19:29:44.678Z,10.60
2023-01-30T19:32:15.356Z,13.10
2023-01-30T19:34:46.577Z,16.60
2023-01-30T19:37:17.154Z,11.90
2023-01-30T19:39:47.992Z,8.90
2023-01-30T19:42:18.651Z,10.40
2023-01-30T19:44:49.209Z,11.20
2023-01-30T19:47:22.031Z,9.40
2023-01-30T19:49:54.141Z,11.10
2023-01-30T19:52:24.766Z,18.80
2023-01-30T19:54:55.194Z,9.50
2023-01-30T19:57:25.668Z,11.30
2023-01-30T19:59:56.091Z,9.20
2023-01-30T20:02:26.508Z,18.30
2023-01-30T20:04:58.355Z,11.50
2023-01-30T20:07:29.808Z,12.70
2023-01-30T20:10:00.536Z,13.10
2023-01-30T20:12:31.970Z,9.80
2023-01-30T20:15:02.935Z,15.70
2023-01-30T20:17:35.077Z,12.80
2023-01-30T20:20:07.780Z,10.90
2023-01-30T20:22:38.316Z,10.00
2023-01-30T20:25:11.105Z,9.70
2023-01-30T20:27:41.540Z,13.10
2023-01-30T20:30:15.385Z,8.60
2023-01-30T20:32:46.863Z,12.60
2023-01-30T20:35:17.775Z,14.10
2023-01-30T20:37:48.310Z,11.50
2023-01-30T20:40:19.569Z,11.10
2023-01-30T20:42:51.286Z,10.20
2023-01-30T20:45:22.158Z,14.60
2023-01-30T20:47:52.879Z,10.90
2023-01-30T20:50:23.401Z,11.20
2023-01-30T20:52:54.058Z,15.10
2023-01-30T20:55:24.511Z,11.40
2023-01-30T20:57:55.022Z,13.60
2023-01-30T21:00:25.566Z,10.50
2023-01-30T21:02:56.220Z,12.20
2023-01-30T21:05:26.671Z,12.30
2023-01-30T21:07:57.059Z,12.50
2023-01-30T21:10:27.492Z,10.20
2023-01-30T21:12:57.949Z,8.30
2023-01-30T21:15:28.666Z,15.90
2023-01-30T21:17:59.146Z,14.00
2023-01-30T21:20:29.539Z,16.80
2023-01-30T21:23:00.142Z,13.70
2023-01-30T21:25:30.670Z,11.10
2023-01-30T21:28:01.219Z,16.90
2023-01-30T21:30:32.078Z,11.20
2023-01-30T21:33:03.007Z,13.00
2023-01-30T21:35:34.111Z,18.40
2023-01-30T21:38:22.006Z,10.40
2023-01-30T21:41:11.059Z,5.00
2023-01-30T21:43:41.470Z,9.30
2023-01-30T21:46:14.376Z,9.70
2023-01-30T21:51:15.283Z,9.90
2023-01-30T21:53:45.662Z,9.10
2023-01-30T21:56:16.065Z,15.50
2023-01-30T21:58:46.493Z,13.60
2023-01-30T22:01:17.671Z,9.90
2023-01-30T22:03:48.345Z,13.80
2023-01-30T22:06:18.948Z,13.80
2023-01-30T22:08:49.315Z,13.10
2023-01-30T22:11:20.166Z,12.30
2023-01-30T22:13:51.206Z,9.50
2023-01-30T22:16:24.233Z,9.10
2023-01-30T22:21:26.386Z,10.40
2023-01-30T22:23:56.863Z,9.60
2023-01-30T22:26:27.955Z,14.00
2023-01-30T22:28:59.049Z,10.30
2023-01-30T22:31:31.274Z,16.40
2023-01-30T22:34:01.948Z,14.10
2023-01-30T22:36:34.012Z,12.10
2023-01-30T22:39:04.905Z,14.80
2023-01-30T22:41:36.425Z,15.00
2023-01-30T22:44:09.187Z,10.00
2023-01-30T22:46:41.710Z,13.90
2023-01-30T22:49:12.069Z,15.00
2023-01-30T22:51:43.668Z,11.00
2023-01-30T22:54:16.412Z,7.90
2023-01-30T22:56:48.780Z,12.00
2023-01-30T22:59:19.338Z,7.30
2023-01-30T23:01:51.850Z,24.80
2023-01-30T23:04:23.834Z,11.10
2023-01-30T23:06:54.264Z,10.80
2023-01-30T23:09:25.234Z,15.50
2023-01-30T23:12:14.846Z,14.10
2023-01-30T23:14:46.091Z,11.10
2023-01-30T23:17:39.256Z,7.70
2023-01-30T23:20:11.710Z,12.00
2023-01-30T23:22:42.306Z,9.70
2023-01-30T23:25:12.679Z,12.30
2023-01-30T23:27:43.024Z,16.00
2023-01-30T23:30:14.895Z,8.50
2023-01-30T23:32:45.223Z,11.90
2023-01-30T23:35:15.558Z,11.40
2023-01-30T23:38:03.297Z,8.70
2023-01-30T23:40:33.646Z,12.20
2023-01-30T23:43:04.512Z,9.30
2023-01-30T23:45:37.807Z,14.90
2023-01-30T23:48:09.373Z,19.90
2023-01-30T23:50:42.056Z,10.30
2023-01-30T23:53:13.096Z,9.10
2023-01-30T23:55:52.731Z,10.00
2023-01-30T23:58:23.247Z,6.10
